• Join FlightAware (Why Join?)
  • Login
  • US Flag 
03:59AM EDT


 

Airport Tracker/Info


-or-


 

Live Flight TrackerFlight Track Log ✈ N75ZM ✈ 23-Feb-2014 ✈ KFPR - KPDK

Flight Track Log - Related Links

Times and Time Zones

All times are in EST time to prevent confusion due to time zone crossing. See the N75ZM flight status page for this flight to view local times or setup timezone preferences in your user account.

Time Position Orientation Groundspeed Altitude Reporting Facility
EST Latitude Longitude Course Direction KTS MPH feet Rate Location/Type
11:23AM 27.4658 -80.3186 138° Southeast 139 160 1,800  Level Miami Center
11:24AM 27.4372 -80.2872 136° Southeast 134 154 2,000 240 Climbing Miami Center
11:25AM 27.4297 -80.2519 103° East 133 153 2,300 300 Climbing Miami Center
11:26AM 27.7344 -80.4755 336° Northwest  Level FlightAware Approximate
11:26AM 27.4692 -80.2578 353° North 77 89 2,700  Level Miami Center
11:27AM 27.7772 -80.4901 348° North  Level FlightAware Approximate
11:27AM 27.5106 -80.2825 332° Northwest 132 152 3,300  Level Miami Center
11:28AM 27.5475 -80.3047 332° Northwest 150 173 3,700 420 Climbing Miami Center
11:29AM 27.5844 -80.3267 332° Northwest 150 173 4,200 420 Climbing Miami Center
11:30AM 27.6194 -80.3467 333° Northwest 150 173 4,600 480 Climbing Miami Center
11:31AM 27.6586 -80.3714 331° Northwest 150 173 5,200 180 Climbing Miami Center
11:32AM 27.6997 -80.3936 334° Northwest 156 180 5,000 -60 Descending Miami Center
11:33AM 27.7408 -80.4231 328° Northwest 161 185 5,100 300 Climbing Miami Center
11:34AM 27.7803 -80.4361 344° North 161 185 5,600 420 Climbing Miami Center
11:35AM 27.8217 -80.4444 350° North 156 180 6,000 480 Climbing Miami Center
11:36AM 27.8678 -80.4458 358° North 151 174 6,600 480 Climbing Miami Center
11:38AM 27.9500 -80.4333 North 150 173 7,500 480 Climbing Orlando TRACON
11:39AM 28.0000 -80.4333 360° North 152 175 8,100 420 Climbing Orlando TRACON
11:40AM 28.0333 -80.4500 336° Northwest 146 168 8,400 420 Climbing Orlando TRACON
11:40AM 28.0500 -80.4833 300° West 136 157 8,900 240 Climbing Orlando TRACON
11:42AM 28.0667 -80.5333 291° West 149 171 9,000  Climbing Orlando TRACON
11:43AM 28.0833 -80.5833 291° West 161 185 9,000  Level Orlando TRACON
11:44AM 28.1000 -80.6333 291° West 165 190 9,000  Level Orlando TRACON
11:45AM 28.1500 -80.6500 344° North 179 206 9,000  Level Orlando TRACON
11:46AM 28.2000 -80.6667 344° North 177 204 9,000  Level Orlando TRACON
11:47AM 28.2333 -80.6833 336° Northwest 177 204 9,000  Level Orlando TRACON
11:48AM 28.2833 -80.7000 344° North 180 207 9,000  Level Orlando TRACON
11:49AM 28.3333 -80.7333 330° Northwest 178 205 9,000  Level Orlando TRACON
11:50AM 28.3833 -80.7500 344° North 175 201 9,000  Level Orlando TRACON
11:51AM 28.4333 -80.7667 344° North 177 204 9,000  Level Orlando TRACON
11:52AM 28.4667 -80.7833 336° Northwest 176 203 9,000  Level Orlando TRACON
11:53AM 28.5167 -80.8000 344° North 175 201 9,000  Level Orlando TRACON
11:54AM 28.5667 -80.8167 344° North 175 201 9,000  Level Orlando TRACON
11:55AM 28.6167 -80.8333 344° North 174 200 9,000  Level Orlando TRACON
11:56AM 28.6500 -80.8500 336° Northwest 173 199 9,000  Level Orlando TRACON
11:57AM 28.7000 -80.8667 344° North 173 199 9,000  Level Orlando TRACON
11:58AM 28.7753 -80.9075 335° Northwest 173 199 9,000  Level Jacksonville Center
11:59AM 28.8214 -80.9256 341° North 177 204 9,000  Level Jacksonville Center
12:00PM 28.8697 -80.9414 344° North 177 204 9,000  Level Jacksonville Center
12:01PM 28.9181 -80.9642 338° Northwest 178 205 9,000  Level Jacksonville Center
12:02PM 28.9642 -80.9797 344° North 176 203 9,000  Level Jacksonville Center
12:03PM 29.0103 -80.9978 341° North 177 204 9,000  Level Jacksonville Center
12:04PM 29.0608 -81.0206 339° North 177 204 9,000  Level Jacksonville Center
12:05PM 29.1028 -81.0389 339° North 177 204 9,000  Level Jacksonville Center
12:06PM 29.1511 -81.0569 342° North 179 206 9,000  Level Jacksonville Center
12:08PM 29.2036 -81.0775 341° North 179 206 9,000  Level Jacksonville Center
12:09PM 29.2478 -81.0958 340° North 179 206 9,000  Level Jacksonville Center
12:10PM 29.2939 -81.1139 341° North 177 204 9,000  Level Jacksonville Center
12:11PM 29.3439 -81.1178 356° North 183 211 9,000  Level Jacksonville Center
12:12PM 29.3942 -81.1217 356° North 181 208 9,000  Level Jacksonville Center
12:13PM 29.4483 -81.1253 357° North 183 211 9,000  Level Jacksonville Center
12:14PM 29.5006 -81.1244 North 187 215 9,000  Level Jacksonville Center
12:15PM 29.5528 -81.1236 North 187 215 9,000  Level Jacksonville Center
12:16PM 29.6050 -81.1272 357° North 187 215 9,000  Level Jacksonville Center
12:17PM 29.6553 -81.1289 358° North 185 213 9,000  Level Jacksonville Center
12:18PM 29.7094 -81.1278 North 182 209 9,000 -120 Level Jacksonville Center
12:18PM 29.7136 -81.1278 360° North 183 211 8,900 -120 Descending Jacksonville Center
12:19PM 29.7867 -81.1336 356° North 182 209 8,900  Level Jacksonville Center
12:20PM 29.8328 -81.1494 343° North 175 201 8,900  Level Jacksonville Center
12:21PM 29.8792 -81.1703 339° North 176 203 8,900  Level Jacksonville Center
12:22PM 29.9253 -81.1839 346° North 177 204 8,900  Level Jacksonville Center
12:23PM 29.9733 -81.1997 344° North 176 203 8,900  Level Jacksonville Center
12:24PM 30.0194 -81.2158 343° North 178 205 8,900  Level Jacksonville Center
12:25PM 30.0739 -81.2267 350° North 182 209 8,900  Level Jacksonville Center
12:26PM 30.1203 -81.2453 341° North 178 205 8,900  Level Jacksonville Center
12:27PM 30.1642 -81.2589 345° North 180 207 9,000  Climbing Jacksonville Center
12:28PM 30.2122 -81.2678 351° North 180 207 9,000  Level Jacksonville Center
12:29PM 30.2625 -81.2742 354° North 182 209 9,000  Level Jacksonville Center
12:30PM 30.3211 -81.2828 353° North 182 209 9,000  Level Jacksonville Center
12:31PM 30.3608 -81.2797 North 185 213 9,000  Level Jacksonville Center
12:32PM 30.4233 -81.2761 North 179 206 9,000  Level Jacksonville Center
12:33PM 30.4714 -81.2753 North 183 211 9,000  Level Jacksonville Center
12:34PM 30.5172 -81.2744 North 182 209 9,000  Level Jacksonville Center
12:35PM 30.5672 -81.2714 North 178 205 9,000  Level Jacksonville Center
12:36PM 30.5964 -81.2661 North 180 207 9,000  Level Jacksonville Center
12:36PM 30.6236 -81.2681 356° North 182 209 9,000  Level Jacksonville Center
12:37PM 30.6342 -81.2678 North 180 207 9,000  Level Jacksonville Center
12:38PM 30.6819 -81.2644 North 180 207 9,000  Level Jacksonville Center
12:39PM 30.7447 -81.2658 359° North 168 193 9,000  Level Jacksonville Center
12:40PM 30.7928 -81.2628 North 173 199 9,000  Level Jacksonville Center
12:41PM 30.8386 -81.2594 North 173 199 9,000  Level Jacksonville Center
12:42PM 30.8886 -81.2586 North 178 205 9,000  Level Jacksonville Center
12:43PM 30.9408 -81.2553 North 178 205 9,000  Level Jacksonville Center
12:44PM 30.9889 -81.2544 North 178 205 9,000  Level Jacksonville Center
12:45PM 31.0369 -81.2511 North 178 205 9,000  Level Jacksonville Center
12:46PM 31.0889 -81.2478 North 178 205 9,000  Level Jacksonville Center
12:47PM 31.1350 -81.2469 North 178 205 9,000  Level Jacksonville Center
12:48PM 31.1911 -81.2436 North 178 205 9,000  Level Jacksonville Center
12:49PM 31.2433 -81.2428 North 178 205 9,000  Level Jacksonville Center
12:50PM 31.2956 -81.2394 North 178 205 9,000  Level Jacksonville Center
12:51PM 31.3414 -81.2386 North 178 205 9,000  Level Jacksonville Center
12:52PM 31.3917 -81.2353 North 183 211 9,000  Level Jacksonville Center
12:53PM 31.4500 -81.2342 North 178 205 9,000  Level Jacksonville Center
12:54PM 31.4981 -81.2308 North 178 205 9,000  Level Jacksonville Center
12:55PM 31.5481 -81.2300 North 178 205 9,000  Level Jacksonville Center
12:56PM 31.5939 -81.2267 North 178 205 9,000  Level Jacksonville Center
12:57PM 31.6483 -81.2258 North 178 205 9,000  Level Jacksonville Center
12:58PM 31.6983 -81.2225 North 178 205 9,000  Level Jacksonville Center
12:59PM 31.7464 -81.2192 North 178 205 9,000  Level Jacksonville Center
01:00PM 31.7900 -81.2183 North 178 205 9,000  Level Jacksonville Center
01:01PM 31.8422 -81.2172 North 178 205 9,000  Level Jacksonville Center
01:02PM 31.8986 -81.2139 North 178 205 9,000 -120 Level Jacksonville Center
01:12PM 32.2631 -81.4822 304° West 167 192 7,900 -120 Descending Jacksonville Center
01:13PM 32.2680 -81.4183 304° West  Level FlightAware Approximate
01:13PM 32.2864 -81.5261 302° West 167 192 7,900  Level Jacksonville Center
01:14PM 32.2931 -81.4622 304° West  Level FlightAware Approximate
01:14PM 32.3164 -81.5750 306° West 167 192 7,900  Level Jacksonville Center
01:15PM 32.3181 -81.5061 304° West  Level FlightAware Approximate
01:15PM 32.3417 -81.6164 306° West 161 185 7,900  Level Jacksonville Center
01:16PM 32.3432 -81.5501 304° West  Level FlightAware Approximate
01:16PM 32.3650 -81.6603 302° West 161 185 7,900  Level Jacksonville Center
01:17PM 32.4053 -81.7239 307° West 163 188 7,900  Level Atlanta Center
01:18PM 32.4333 -81.7697 306° West 163 188 7,900  Level Atlanta Center
01:19PM 32.4569 -81.8111 304° West 163 188 7,900  Level Atlanta Center
01:20PM 32.4828 -81.8597 302° West 163 188 7,900  Level Atlanta Center
01:21PM 32.5047 -81.9083 298° West 163 188 7,900  Level Atlanta Center
01:22PM 32.5283 -81.9497 304° West 169 194 7,900  Level Atlanta Center
01:23PM 32.5519 -81.9958 301° West 169 194 7,900  Level Atlanta Center
01:24PM 32.5758 -82.0472 299° West 169 194 7,900  Level Atlanta Center
01:25PM 32.5994 -82.0933 301° West 169 194 7,900  Level Atlanta Center
01:26PM 32.6231 -82.1397 301° West 169 194 7,900  Level Atlanta Center
01:27PM 32.6469 -82.1861 301° West 169 194 7,900  Level Atlanta Center
01:28PM 32.6706 -82.2350 300° West 163 188 7,900  Level Atlanta Center
01:29PM 32.6942 -82.2789 303° West 163 188 7,900  Level Atlanta Center
01:30PM 32.7178 -82.3256 301° West 163 188 7,900  Level Atlanta Center
01:31PM 32.7414 -82.3694 303° West 163 188 7,900  Level Atlanta Center
01:32PM 32.7650 -82.4208 299° West 163 188 7,900  Level Atlanta Center
01:33PM 32.7886 -82.4650 302° West 163 188 7,900  Level Atlanta Center
01:34PM 32.8100 -82.5089 300° West 163 188 7,900  Level Atlanta Center
01:35PM 32.8333 -82.5531 302° West 163 188 7,900  Level Atlanta Center
01:36PM 32.8569 -82.5997 301° West 163 188 7,900  Level Atlanta Center
01:37PM 32.8783 -82.6439 300° West 163 188 7,900  Level Atlanta Center
01:38PM 32.8997 -82.6881 300° West 163 188 7,900  Level Atlanta Center
01:39PM 32.9211 -82.7322 300° West 163 188 7,900  Level Atlanta Center
01:40PM 32.9425 -82.7739 301° West 158 182 7,900  Level Atlanta Center
01:41PM 32.9658 -82.8183 302° West 158 182 7,900  Level Atlanta Center
01:42PM 32.9869 -82.8625 300° West 158 182 7,900  Level Atlanta Center
01:43PM 33.0083 -82.9069 300° West 158 182 8,000  Climbing Atlanta Center
01:44PM 33.0297 -82.9486 301° West 158 182 7,900  Descending Atlanta Center
01:46PM 33.0667 -83.0167 303° West 151 174 8,000  Climbing Atlanta TRACON
01:47PM 33.0833 -83.0667 292° West 150 173 8,000 -60 Level Atlanta TRACON
01:48PM 33.1167 -83.1000 320° Northwest 151 174 7,900  Descending Atlanta TRACON
01:49PM 33.1333 -83.1500 292° West 150 173 8,000  Climbing Atlanta TRACON
01:50PM 33.1500 -83.1833 301° West 151 174 7,900  Descending Atlanta TRACON
01:51PM 33.1833 -83.2333 309° West 151 174 8,000  Climbing Atlanta TRACON
01:52PM 33.2000 -83.2833 292° West 149 171 7,900 -60 Descending Atlanta TRACON
01:53PM 33.2167 -83.3167 301° West 150 173 7,900  Level Atlanta TRACON
01:54PM 33.2333 -83.3667 292° West 150 173 7,900  Level Atlanta TRACON
01:55PM 33.2500 -83.4000 301° West 149 171 7,900  Level Atlanta TRACON
01:56PM 33.2833 -83.4500 309° West 149 171 8,000  Climbing Atlanta TRACON
01:57PM 33.3000 -83.4833 301° West 148 170 8,000  Level Atlanta TRACON
01:58PM 33.3167 -83.5333 292° West 149 171 8,000  Level Atlanta TRACON
01:59PM 33.3333 -83.5667 301° West 148 170 8,000  Level Atlanta TRACON
02:00PM 33.3667 -83.6167 309° West 154 177 8,000  Level Atlanta TRACON
02:01PM 33.3833 -83.6500 301° West 149 171 8,000  Level Atlanta TRACON
02:02PM 33.4167 -83.7000 309° West 160 184 8,000 -240 Level Atlanta TRACON
02:03PM 33.4667 -83.7167 344° North 173 199 7,600 -360 Descending Atlanta TRACON
02:04PM 33.5167 -83.7333 344° North 184 212 7,300 -360 Descending Atlanta TRACON
02:05PM 33.5667 -83.7500 344° North 187 215 6,900 -420 Descending Atlanta TRACON
02:06PM 33.6167 -83.7667 344° North 190 219 6,500 -420 Descending Atlanta TRACON
02:07PM 33.6667 -83.7833 344° North 199 229 6,100 -360 Descending Atlanta TRACON
02:08PM 33.7167 -83.8000 345° North 203 234 5,800 -360 Descending Atlanta TRACON
02:09PM 33.7833 -83.8333 337° Northwest 204 235 5,400 -360 Descending Atlanta TRACON
02:10PM 33.8333 -83.8500 345° North 203 234 5,100 -480 Descending Atlanta TRACON
02:11PM 33.8667 -83.8833 320° Northwest 182 209 4,500 -600 Descending Atlanta TRACON
02:12PM 33.9000 -83.9333 309° West 166 191 4,000 -300 Descending Atlanta TRACON
02:13PM 33.9167 -83.9833 292° West 158 182 4,000  Level Atlanta TRACON
02:14PM 33.9333 -84.0167 301° West 147 169 4,000  Level Atlanta TRACON
02:15PM 33.9333 -84.0667 270° West 146 168 4,000 -240 Level Atlanta TRACON
02:16PM 33.9333 -84.1167 270° West 158 182 3,600 -360 Descending Atlanta TRACON
02:17PM 33.9333 -84.1667 270° West 161 185 3,300 -300 Descending Atlanta TRACON
02:18PM 33.9167 -84.2167 248° West 154 177 3,000 -420 Descending Atlanta TRACON
02:19PM 33.9167 -84.2667 270° West 128 147 2,500 -780 Descending Atlanta TRACON
02:20PM 33.9000 -84.2833 220° Southwest 93 107 1,600 -1,020 Descending Atlanta TRACON
02:22PM 33.8667 -84.3000 275° West  Level FlightAware Approximate
02:29PM 33.8756 -84.3020 275° West  Level Estimated